sensor_id;sensor_type;location;lat;lon;timestamp;P1;durP1;ratioP1;P2;durP2;ratioP2
3881;SDS011;1956;53.482;10.238;2023-03-01T00:03:14;12.07;;;6.93;;
3881;SDS011;1956;53.482;10.238;2023-03-01T00:08:14;12.30;;;5.90;;
3881;SDS011;1956;53.482;10.238;2023-03-01T00:13:15;8.20;;;5.23;;
3881;SDS011;1956;53.482;10.238;2023-03-01T00:18:15;5.87;;;4.90;;
3881;SDS011;1956;53.482;10.238;2023-03-01T00:23:16;10.73;;;6.47;;
3881;SDS011;1956;53.482;10.238;2023-03-01T00:28:16;11.40;;;6.60;;
3881;SDS011;1956;53.482;10.238;2023-03-01T00:33:16;9.50;;;5.93;;
3881;SDS011;1956;53.482;10.238;2023-03-01T00:38:17;9.00;;;6.13;;
3881;SDS011;1956;53.482;10.238;2023-03-01T00:43:18;15.97;;;7.30;;
3881;SDS011;1956;53.482;10.238;2023-03-01T00:48:18;8.83;;;6.07;;
3881;SDS011;1956;53.482;10.238;2023-03-01T00:53:19;14.40;;;6.10;;
3881;SDS011;1956;53.482;10.238;2023-03-01T00:58:19;11.57;;;6.30;;
3881;SDS011;1956;53.482;10.238;2023-03-01T01:03:19;11.00;;;6.00;;
3881;SDS011;1956;53.482;10.238;2023-03-01T01:08:20;7.17;;;5.33;;
3881;SDS011;1956;53.482;10.238;2023-03-01T01:13:20;8.60;;;5.40;;
3881;SDS011;1956;53.482;10.238;2023-03-01T01:18:21;8.87;;;6.37;;
3881;SDS011;1956;53.482;10.238;2023-03-01T01:23:22;9.33;;;5.43;;
3881;SDS011;1956;53.482;10.238;2023-03-01T01:28:22;6.50;;;5.50;;
3881;SDS011;1956;53.482;10.238;2023-03-01T01:33:22;5.97;;;5.30;;
3881;SDS011;1956;53.482;10.238;2023-03-01T01:38:23;6.20;;;4.77;;
3881;SDS011;1956;53.482;10.238;2023-03-01T01:43:30;7.53;;;5.10;;
3881;SDS011;1956;53.482;10.238;2023-03-01T01:48:39;7.27;;;5.67;;
3881;SDS011;1956;53.482;10.238;2023-03-01T01:53:46;7.30;;;4.90;;
3881;SDS011;1956;53.482;10.238;2023-03-01T01:58:49;9.90;;;5.93;;
3881;SDS011;1956;53.482;10.238;2023-03-01T02:03:50;8.00;;;6.20;;
3881;SDS011;1956;53.482;10.238;2023-03-01T02:08:50;8.40;;;5.60;;
3881;SDS011;1956;53.482;10.238;2023-03-01T02:13:53;10.07;;;6.13;;
3881;SDS011;1956;53.482;10.238;2023-03-01T02:18:54;11.90;;;7.07;;
3881;SDS011;1956;53.482;10.238;2023-03-01T02:23:54;10.67;;;6.60;;
3881;SDS011;1956;53.482;10.238;2023-03-01T02:28:57;13.00;;;6.77;;
3881;SDS011;1956;53.482;10.238;2023-03-01T02:33:58;8.87;;;6.43;;
3881;SDS011;1956;53.482;10.238;2023-03-01T02:38:59;13.83;;;8.00;;
3881;SDS011;1956;53.482;10.238;2023-03-01T02:44:02;8.30;;;5.63;;
3881;SDS011;1956;53.482;10.238;2023-03-01T02:49:16;10.20;;;7.50;;
3881;SDS011;1956;53.482;10.238;2023-03-01T02:54:24;11.60;;;6.90;;
3881;SDS011;1956;53.482;10.238;2023-03-01T02:59:31;9.30;;;6.53;;
3881;SDS011;1956;53.482;10.238;2023-03-01T03:04:39;12.53;;;7.87;;
3881;SDS011;1956;53.482;10.238;2023-03-01T03:09:39;13.50;;;7.90;;
3881;SDS011;1956;53.482;10.238;2023-03-01T03:14:39;12.40;;;7.23;;
3881;SDS011;1956;53.482;10.238;2023-03-01T03:19:40;10.83;;;7.10;;
3881;SDS011;1956;53.482;10.238;2023-03-01T03:24:40;13.47;;;8.37;;
3881;SDS011;1956;53.482;10.238;2023-03-01T03:29:40;12.17;;;7.63;;
3881;SDS011;1956;53.482;10.238;2023-03-01T03:34:41;11.10;;;7.97;;
3881;SDS011;1956;53.482;10.238;2023-03-01T03:39:41;11.63;;;7.23;;
3881;SDS011;1956;53.482;10.238;2023-03-01T03:44:41;14.93;;;9.40;;
3881;SDS011;1956;53.482;10.238;2023-03-01T03:49:42;16.97;;;8.50;;
3881;SDS011;1956;53.482;10.238;2023-03-01T03:54:42;12.53;;;7.73;;
3881;SDS011;1956;53.482;10.238;2023-03-01T03:59:43;20.23;;;8.40;;
3881;SDS011;1956;53.482;10.238;2023-03-01T04:04:43;15.47;;;9.27;;
3881;SDS011;1956;53.482;10.238;2023-03-01T04:09:43;13.37;;;8.40;;
3881;SDS011;1956;53.482;10.238;2023-03-01T04:14:44;12.00;;;8.03;;
3881;SDS011;1956;53.482;10.238;2023-03-01T04:19:44;15.10;;;8.73;;
3881;SDS011;1956;53.482;10.238;2023-03-01T04:24:48;10.93;;;7.20;;
3881;SDS011;1956;53.482;10.238;2023-03-01T04:29:49;10.57;;;7.43;;
3881;SDS011;1956;53.482;10.238;2023-03-01T04:34:49;10.87;;;7.67;;
3881;SDS011;1956;53.482;10.238;2023-03-01T04:39:49;19.10;;;8.03;;
3881;SDS011;1956;53.482;10.238;2023-03-01T04:44:50;15.77;;;8.73;;
3881;SDS011;1956;53.482;10.238;2023-03-01T04:49:51;9.80;;;8.37;;
3881;SDS011;1956;53.482;10.238;2023-03-01T04:54:51;11.40;;;7.90;;
3881;SDS011;1956;53.482;10.238;2023-03-01T04:59:51;10.30;;;8.13;;
3881;SDS011;1956;53.482;10.238;2023-03-01T05:04:52;9.70;;;7.40;;
3881;SDS011;1956;53.482;10.238;2023-03-01T05:09:57;10.90;;;7.20;;
3881;SDS011;1956;53.482;10.238;2023-03-01T05:14:57;9.23;;;7.20;;
3881;SDS011;1956;53.482;10.238;2023-03-01T05:19:58;10.50;;;7.60;;
3881;SDS011;1956;53.482;10.238;2023-03-01T05:24:59;8.43;;;7.13;;
3881;SDS011;1956;53.482;10.238;2023-03-01T05:30:00;10.83;;;6.10;;
3881;SDS011;1956;53.482;10.238;2023-03-01T05:35:13;8.03;;;6.63;;
3881;SDS011;1956;53.482;10.238;2023-03-01T05:40:17;9.13;;;6.87;;
3881;SDS011;1956;53.482;10.238;2023-03-01T05:45:22;7.93;;;6.93;;
3881;SDS011;1956;53.482;10.238;2023-03-01T05:50:28;11.23;;;7.40;;
3881;SDS011;1956;53.482;10.238;2023-03-01T05:55:29;13.00;;;7.77;;
3881;SDS011;1956;53.482;10.238;2023-03-01T06:00:31;11.43;;;7.70;;
3881;SDS011;1956;53.482;10.238;2023-03-01T06:05:32;11.10;;;8.10;;
3881;SDS011;1956;53.482;10.238;2023-03-01T06:10:32;15.10;;;8.53;;
3881;SDS011;1956;53.482;10.238;2023-03-01T06:15:32;11.53;;;7.80;;
3881;SDS011;1956;53.482;10.238;2023-03-01T06:20:33;9.60;;;7.53;;
3881;SDS011;1956;53.482;10.238;2023-03-01T06:25:33;9.20;;;6.73;;
3881;SDS011;1956;53.482;10.238;2023-03-01T06:30:34;10.83;;;6.20;;
3881;SDS011;1956;53.482;10.238;2023-03-01T06:35:35;8.50;;;7.10;;
3881;SDS011;1956;53.482;10.238;2023-03-01T06:40:35;8.83;;;7.00;;
3881;SDS011;1956;53.482;10.238;2023-03-01T06:45:36;13.90;;;7.40;;
3881;SDS011;1956;53.482;10.238;2023-03-01T06:50:37;10.00;;;7.00;;
3881;SDS011;1956;53.482;10.238;2023-03-01T06:55:37;10.37;;;7.00;;
3881;SDS011;1956;53.482;10.238;2023-03-01T07:00:38;13.50;;;6.77;;
3881;SDS011;1956;53.482;10.238;2023-03-01T07:05:40;11.30;;;7.20;;
3881;SDS011;1956;53.482;10.238;2023-03-01T07:10:41;12.33;;;7.47;;
3881;SDS011;1956;53.482;10.238;2023-03-01T07:15:41;10.93;;;7.40;;
3881;SDS011;1956;53.482;10.238;2023-03-01T07:20:41;10.67;;;7.13;;
3881;SDS011;1956;53.482;10.238;2023-03-01T07:25:42;10.57;;;7.17;;
3881;SDS011;1956;53.482;10.238;2023-03-01T07:30:42;13.17;;;6.87;;
3881;SDS011;1956;53.482;10.238;2023-03-01T07:35:42;13.43;;;6.87;;
3881;SDS011;1956;53.482;10.238;2023-03-01T07:40:43;17.63;;;11.57;;
3881;SDS011;1956;53.482;10.238;2023-03-01T07:45:43;14.40;;;8.30;;
3881;SDS011;1956;53.482;10.238;2023-03-01T07:50:44;13.53;;;7.47;;
3881;SDS011;1956;53.482;10.238;2023-03-01T07:55:44;12.17;;;7.40;;
3881;SDS011;1956;53.482;10.238;2023-03-01T08:00:44;11.80;;;7.17;;
3881;SDS011;1956;53.482;10.238;2023-03-01T08:05:45;11.77;;;7.50;;
3881;SDS011;1956;53.482;10.238;2023-03-01T08:10:45;7.67;;;6.63;;
3881;SDS011;1956;53.482;10.238;2023-03-01T08:15:45;10.23;;;6.10;;
3881;SDS011;1956;53.482;10.238;2023-03-01T08:20:46;12.50;;;6.60;;
3881;SDS011;1956;53.482;10.238;2023-03-01T08:25:47;12.73;;;7.30;;
3881;SDS011;1956;53.482;10.238;2023-03-01T08:30:47;13.80;;;6.97;;
3881;SDS011;1956;53.482;10.238;2023-03-01T08:35:47;17.83;;;7.80;;
3881;SDS011;1956;53.482;10.238;2023-03-01T08:40:48;11.73;;;6.13;;
3881;SDS011;1956;53.482;10.238;2023-03-01T08:45:48;14.50;;;7.30;;
3881;SDS011;1956;53.482;10.238;2023-03-01T08:50:48;13.10;;;7.30;;
3881;SDS011;1956;53.482;10.238;2023-03-01T08:55:49;10.90;;;7.53;;
3881;SDS011;1956;53.482;10.238;2023-03-01T09:00:49;20.03;;;7.60;;
3881;SDS011;1956;53.482;10.238;2023-03-01T09:05:50;11.10;;;6.93;;
3881;SDS011;1956;53.482;10.238;2023-03-01T09:10:51;9.70;;;6.30;;
3881;SDS011;1956;53.482;10.238;2023-03-01T09:15:52;14.70;;;8.53;;
3881;SDS011;1956;53.482;10.238;2023-03-01T09:20:52;15.20;;;7.53;;
3881;SDS011;1956;53.482;10.238;2023-03-01T09:25:54;11.30;;;8.50;;
3881;SDS011;1956;53.482;10.238;2023-03-01T09:30:57;16.00;;;8.57;;
3881;SDS011;1956;53.482;10.238;2023-03-01T09:36:00;18.90;;;9.10;;
3881;SDS011;1956;53.482;10.238;2023-03-01T09:41:01;13.77;;;8.63;;
3881;SDS011;1956;53.482;10.238;2023-03-01T09:46:05;14.40;;;9.30;;
3881;SDS011;1956;53.482;10.238;2023-03-01T09:51:12;24.27;;;8.90;;
3881;SDS011;1956;53.482;10.238;2023-03-01T09:56:40;15.20;;;9.23;;
3881;SDS011;1956;53.482;10.238;2023-03-01T10:02:21;18.07;;;9.40;;
3881;SDS011;1956;53.482;10.238;2023-03-01T10:19:06;25.27;;;10.27;;
3881;SDS011;1956;53.482;10.238;2023-03-01T10:24:15;15.10;;;10.90;;
3881;SDS011;1956;53.482;10.238;2023-03-01T10:29:18;16.23;;;10.50;;
3881;SDS011;1956;53.482;10.238;2023-03-01T10:34:28;16.60;;;10.60;;
3881;SDS011;1956;53.482;10.238;2023-03-01T10:39:33;20.03;;;11.70;;
3881;SDS011;1956;53.482;10.238;2023-03-01T10:44:40;19.63;;;10.47;;
3881;SDS011;1956;53.482;10.238;2023-03-01T10:49:59;12.83;;;9.90;;
3881;SDS011;1956;53.482;10.238;2023-03-01T10:55:23;12.50;;;8.90;;
3881;SDS011;1956;53.482;10.238;2023-03-01T11:00:29;14.67;;;7.83;;
3881;SDS011;1956;53.482;10.238;2023-03-01T11:05:30;15.43;;;8.77;;
3881;SDS011;1956;53.482;10.238;2023-03-01T11:10:34;9.70;;;7.87;;
3881;SDS011;1956;53.482;10.238;2023-03-01T11:15:35;11.67;;;8.07;;
3881;SDS011;1956;53.482;10.238;2023-03-01T11:20:36;10.00;;;7.10;;
3881;SDS011;1956;53.482;10.238;2023-03-01T11:25:37;13.83;;;7.73;;
3881;SDS011;1956;53.482;10.238;2023-03-01T11:30:41;10.63;;;7.60;;
3881;SDS011;1956;53.482;10.238;2023-03-01T11:36:02;12.73;;;7.87;;
3881;SDS011;1956;53.482;10.238;2023-03-01T11:41:25;11.43;;;8.63;;
3881;SDS011;1956;53.482;10.238;2023-03-01T11:46:38;14.60;;;7.97;;
3881;SDS011;1956;53.482;10.238;2023-03-01T11:51:55;13.10;;;8.40;;
3881;SDS011;1956;53.482;10.238;2023-03-01T12:02:51;10.90;;;8.27;;
3881;SDS011;1956;53.482;10.238;2023-03-01T12:20:25;10.60;;;7.40;;
3881;SDS011;1956;53.482;10.238;2023-03-01T12:26:33;13.57;;;8.17;;
3881;SDS011;1956;53.482;10.238;2023-03-01T12:31:35;17.80;;;7.33;;
3881;SDS011;1956;53.482;10.238;2023-03-01T12:37:13;12.80;;;7.60;;
3881;SDS011;1956;53.482;10.238;2023-03-01T12:42:41;7.70;;;6.87;;
3881;SDS011;1956;53.482;10.238;2023-03-01T12:48:01;18.30;;;7.33;;
3881;SDS011;1956;53.482;10.238;2023-03-01T12:53:25;9.67;;;7.03;;
3881;SDS011;1956;53.482;10.238;2023-03-01T12:58:28;13.03;;;7.67;;
3881;SDS011;1956;53.482;10.238;2023-03-01T13:09:40;10.43;;;8.10;;
3881;SDS011;1956;53.482;10.238;2023-03-01T13:15:16;10.47;;;8.00;;
3881;SDS011;1956;53.482;10.238;2023-03-01T13:20:33;9.50;;;5.67;;
3881;SDS011;1956;53.482;10.238;2023-03-01T13:25:35;6.73;;;5.00;;
3881;SDS011;1956;53.482;10.238;2023-03-01T13:37:09;7.73;;;5.40;;
3881;SDS011;1956;53.482;10.238;2023-03-01T13:47:32;7.23;;;5.77;;
3881;SDS011;1956;53.482;10.238;2023-03-01T13:52:35;6.70;;;5.47;;
3881;SDS011;1956;53.482;10.238;2023-03-01T13:57:39;6.93;;;5.37;;
3881;SDS011;1956;53.482;10.238;2023-03-01T14:02:40;8.07;;;5.67;;
3881;SDS011;1956;53.482;10.238;2023-03-01T14:07:41;7.87;;;5.90;;
3881;SDS011;1956;53.482;10.238;2023-03-01T14:12:52;8.20;;;5.83;;
3881;SDS011;1956;53.482;10.238;2023-03-01T14:17:57;10.20;;;5.37;;
3881;SDS011;1956;53.482;10.238;2023-03-01T14:23:02;7.67;;;5.40;;
3881;SDS011;1956;53.482;10.238;2023-03-01T14:33:34;8.20;;;6.23;;
3881;SDS011;1956;53.482;10.238;2023-03-01T14:38:44;8.10;;;5.40;;
3881;SDS011;1956;53.482;10.238;2023-03-01T14:43:47;7.70;;;5.37;;
3881;SDS011;1956;53.482;10.238;2023-03-01T14:49:06;7.30;;;5.70;;
3881;SDS011;1956;53.482;10.238;2023-03-01T14:54:36;7.37;;;5.57;;
3881;SDS011;1956;53.482;10.238;2023-03-01T14:59:40;8.00;;;6.23;;
3881;SDS011;1956;53.482;10.238;2023-03-01T15:04:41;11.43;;;7.80;;
3881;SDS011;1956;53.482;10.238;2023-03-01T15:09:41;11.50;;;7.93;;
3881;SDS011;1956;53.482;10.238;2023-03-01T15:14:42;8.13;;;5.60;;
3881;SDS011;1956;53.482;10.238;2023-03-01T15:19:45;6.00;;;4.57;;
3881;SDS011;1956;53.482;10.238;2023-03-01T15:24:46;6.93;;;4.53;;
3881;SDS011;1956;53.482;10.238;2023-03-01T15:29:52;5.07;;;4.27;;
3881;SDS011;1956;53.482;10.238;2023-03-01T15:35:00;4.27;;;3.40;;
3881;SDS011;1956;53.482;10.238;2023-03-01T15:45:55;7.20;;;4.00;;
3881;SDS011;1956;53.482;10.238;2023-03-01T15:50:57;5.47;;;4.20;;
3881;SDS011;1956;53.482;10.238;2023-03-01T15:55:58;5.20;;;3.90;;
3881;SDS011;1956;53.482;10.238;2023-03-01T16:00:58;5.70;;;3.70;;
3881;SDS011;1956;53.482;10.238;2023-03-01T16:05:59;4.30;;;3.60;;
3881;SDS011;1956;53.482;10.238;2023-03-01T16:11:00;5.70;;;3.97;;
3881;SDS011;1956;53.482;10.238;2023-03-01T16:16:04;6.20;;;4.93;;
3881;SDS011;1956;53.482;10.238;2023-03-01T16:21:05;5.30;;;4.23;;
3881;SDS011;1956;53.482;10.238;2023-03-01T16:26:06;4.77;;;3.93;;
3881;SDS011;1956;53.482;10.238;2023-03-01T16:31:06;7.40;;;4.90;;
3881;SDS011;1956;53.482;10.238;2023-03-01T16:36:08;3.60;;;3.30;;
3881;SDS011;1956;53.482;10.238;2023-03-01T16:41:11;7.17;;;4.97;;
3881;SDS011;1956;53.482;10.238;2023-03-01T16:46:13;4.63;;;3.77;;
3881;SDS011;1956;53.482;10.238;2023-03-01T16:51:16;5.60;;;3.93;;
3881;SDS011;1956;53.482;10.238;2023-03-01T16:56:17;7.50;;;4.73;;
3881;SDS011;1956;53.482;10.238;2023-03-01T17:01:18;5.40;;;3.70;;
3881;SDS011;1956;53.482;10.238;2023-03-01T17:06:20;7.87;;;3.70;;
3881;SDS011;1956;53.482;10.238;2023-03-01T17:11:22;5.30;;;3.70;;
3881;SDS011;1956;53.482;10.238;2023-03-01T17:16:22;4.57;;;3.57;;
3881;SDS011;1956;53.482;10.238;2023-03-01T17:21:22;6.20;;;4.00;;
3881;SDS011;1956;53.482;10.238;2023-03-01T17:26:23;6.00;;;4.13;;
3881;SDS011;1956;53.482;10.238;2023-03-01T17:31:23;5.57;;;4.53;;
3881;SDS011;1956;53.482;10.238;2023-03-01T17:36:24;5.30;;;3.80;;
3881;SDS011;1956;53.482;10.238;2023-03-01T17:41:25;7.80;;;4.57;;
3881;SDS011;1956;53.482;10.238;2023-03-01T17:46:25;5.47;;;4.57;;
3881;SDS011;1956;53.482;10.238;2023-03-01T17:51:26;7.77;;;5.30;;
3881;SDS011;1956;53.482;10.238;2023-03-01T17:56:26;6.83;;;4.93;;
3881;SDS011;1956;53.482;10.238;2023-03-01T18:01:27;7.30;;;5.70;;
3881;SDS011;1956;53.482;10.238;2023-03-01T18:06:28;8.73;;;6.33;;
3881;SDS011;1956;53.482;10.238;2023-03-01T18:11:28;9.20;;;6.70;;
3881;SDS011;1956;53.482;10.238;2023-03-01T18:16:29;11.50;;;6.60;;
3881;SDS011;1956;53.482;10.238;2023-03-01T18:21:30;10.40;;;7.17;;
3881;SDS011;1956;53.482;10.238;2023-03-01T18:26:30;11.43;;;8.00;;
3881;SDS011;1956;53.482;10.238;2023-03-01T18:31:31;11.53;;;8.60;;
3881;SDS011;1956;53.482;10.238;2023-03-01T18:36:33;11.57;;;7.93;;
3881;SDS011;1956;53.482;10.238;2023-03-01T18:41:34;11.33;;;8.23;;
3881;SDS011;1956;53.482;10.238;2023-03-01T18:46:35;12.70;;;8.70;;
3881;SDS011;1956;53.482;10.238;2023-03-01T18:51:37;12.90;;;8.93;;
3881;SDS011;1956;53.482;10.238;2023-03-01T18:56:38;17.90;;;10.93;;
3881;SDS011;1956;53.482;10.238;2023-03-01T19:01:39;13.67;;;9.73;;
3881;SDS011;1956;53.482;10.238;2023-03-01T19:06:39;15.80;;;10.43;;
3881;SDS011;1956;53.482;10.238;2023-03-01T19:11:39;20.43;;;12.47;;
3881;SDS011;1956;53.482;10.238;2023-03-01T19:16:40;20.43;;;12.53;;
3881;SDS011;1956;53.482;10.238;2023-03-01T19:21:40;19.80;;;12.53;;
3881;SDS011;1956;53.482;10.238;2023-03-01T19:26:41;27.60;;;16.87;;
3881;SDS011;1956;53.482;10.238;2023-03-01T19:31:41;21.33;;;14.30;;
3881;SDS011;1956;53.482;10.238;2023-03-01T19:36:42;29.13;;;15.37;;
3881;SDS011;1956;53.482;10.238;2023-03-01T19:41:43;33.60;;;15.50;;
3881;SDS011;1956;53.482;10.238;2023-03-01T19:46:43;27.57;;;15.87;;
3881;SDS011;1956;53.482;10.238;2023-03-01T19:51:44;28.30;;;15.60;;
3881;SDS011;1956;53.482;10.238;2023-03-01T19:56:48;31.43;;;18.07;;
3881;SDS011;1956;53.482;10.238;2023-03-01T20:01:49;36.07;;;19.43;;
3881;SDS011;1956;53.482;10.238;2023-03-01T20:06:50;34.73;;;19.57;;
3881;SDS011;1956;53.482;10.238;2023-03-01T20:11:51;40.67;;;21.43;;
3881;SDS011;1956;53.482;10.238;2023-03-01T20:16:51;45.90;;;20.10;;
3881;SDS011;1956;53.482;10.238;2023-03-01T20:21:51;32.70;;;19.87;;
3881;SDS011;1956;53.482;10.238;2023-03-01T20:26:52;39.83;;;18.30;;
3881;SDS011;1956;53.482;10.238;2023-03-01T20:31:52;39.73;;;21.80;;
3881;SDS011;1956;53.482;10.238;2023-03-01T20:36:53;35.77;;;18.87;;
3881;SDS011;1956;53.482;10.238;2023-03-01T20:41:53;42.77;;;19.43;;
3881;SDS011;1956;53.482;10.238;2023-03-01T20:46:53;37.90;;;20.50;;
3881;SDS011;1956;53.482;10.238;2023-03-01T20:51:54;40.67;;;20.37;;
3881;SDS011;1956;53.482;10.238;2023-03-01T20:56:54;41.63;;;20.07;;
3881;SDS011;1956;53.482;10.238;2023-03-01T21:01:54;35.50;;;18.70;;
3881;SDS011;1956;53.482;10.238;2023-03-01T21:06:55;43.50;;;16.93;;
3881;SDS011;1956;53.482;10.238;2023-03-01T21:11:55;37.33;;;18.50;;
3881;SDS011;1956;53.482;10.238;2023-03-01T21:16:56;31.50;;;16.60;;
3881;SDS011;1956;53.482;10.238;2023-03-01T21:21:57;42.63;;;20.00;;
3881;SDS011;1956;53.482;10.238;2023-03-01T21:26:57;35.63;;;17.23;;
3881;SDS011;1956;53.482;10.238;2023-03-01T21:31:57;37.23;;;18.10;;
3881;SDS011;1956;53.482;10.238;2023-03-01T21:36:58;36.57;;;18.97;;
3881;SDS011;1956;53.482;10.238;2023-03-01T21:42:00;36.17;;;17.30;;
3881;SDS011;1956;53.482;10.238;2023-03-01T21:47:01;29.53;;;16.10;;
3881;SDS011;1956;53.482;10.238;2023-03-01T21:52:01;34.70;;;17.77;;
3881;SDS011;1956;53.482;10.238;2023-03-01T21:57:03;35.63;;;15.63;;
3881;SDS011;1956;53.482;10.238;2023-03-01T22:02:04;31.10;;;16.27;;
3881;SDS011;1956;53.482;10.238;2023-03-01T22:07:04;31.93;;;15.07;;
3881;SDS011;1956;53.482;10.238;2023-03-01T22:12:05;35.90;;;17.17;;
3881;SDS011;1956;53.482;10.238;2023-03-01T22:17:05;34.50;;;15.03;;
3881;SDS011;1956;53.482;10.238;2023-03-01T22:22:06;34.73;;;15.90;;
3881;SDS011;1956;53.482;10.238;2023-03-01T22:27:06;33.93;;;17.47;;
3881;SDS011;1956;53.482;10.238;2023-03-01T22:32:06;41.80;;;17.07;;
3881;SDS011;1956;53.482;10.238;2023-03-01T22:37:07;34.60;;;17.53;;
3881;SDS011;1956;53.482;10.238;2023-03-01T22:42:07;33.20;;;17.50;;
3881;SDS011;1956;53.482;10.238;2023-03-01T22:47:08;32.77;;;15.67;;
3881;SDS011;1956;53.482;10.238;2023-03-01T22:52:09;33.97;;;17.40;;
3881;SDS011;1956;53.482;10.238;2023-03-01T22:57:10;32.23;;;17.50;;
3881;SDS011;1956;53.482;10.238;2023-03-01T23:02:10;39.40;;;18.50;;
3881;SDS011;1956;53.482;10.238;2023-03-01T23:07:10;35.50;;;17.27;;
3881;SDS011;1956;53.482;10.238;2023-03-01T23:12:11;34.23;;;17.23;;
3881;SDS011;1956;53.482;10.238;2023-03-01T23:17:11;41.70;;;18.43;;
3881;SDS011;1956;53.482;10.238;2023-03-01T23:22:12;37.07;;;16.60;;
3881;SDS011;1956;53.482;10.238;2023-03-01T23:27:13;35.37;;;17.10;;
3881;SDS011;1956;53.482;10.238;2023-03-01T23:32:15;43.50;;;17.83;;
3881;SDS011;1956;53.482;10.238;2023-03-01T23:37:16;50.63;;;18.20;;
3881;SDS011;1956;53.482;10.238;2023-03-01T23:42:16;36.53;;;18.03;;
3881;SDS011;1956;53.482;10.238;2023-03-01T23:47:17;38.30;;;19.00;;
3881;SDS011;1956;53.482;10.238;2023-03-01T23:52:17;59.63;;;18.77;;
3881;SDS011;1956;53.482;10.238;2023-03-01T23:57:18;49.37;;;18.77;;
